GMTA/AHU METAR and TAF weather

Enter ICAO airport designator
Station Type Date Time Source
GMTA METAR 2018/09/21 23:00 UTC NOAA

GMTA 212300Z VRB02KT CAVOK 23/21 Q1019 NOSIG


Station Type Date Time Source
GMTA Decoded METAR 2018/09/21 23:00 UTC NOAA

Al Hoceima, Morocco (GMTA) 35-11N 003-51W 14M
Sep 21, 2018 - 07:00 PM EDT / 2018.09.21 2300 UTC
Wind: Variable at 2 MPH (2 KT):0
Visibility: greater than 7 mile(s):0
Temperature: 73 F (23 C)
Dew Point: 69 F (21 C)
Relative Humidity: 88%
Pressure (altimeter): 30.09 in. Hg (1019 hPa)
ob: GMTA 212300Z VRB02KT CAVOK 23/21 Q1019 NOSIG
cycle: 23

Station Type Date Time Source
GMTA TAF 2018/09/21 18:18 UTC NOAA

TAF GMTA 211700Z 2118/2224 34008KT CAVOK PROB40 2200/2206 VRB02KT 3000 BR SCT010


Example: see airport list